»·PEaware :: N13M KSBP-KBUR

N13M :: KSBP-KBUR

FLIGHT INFORMATION

Flight Status: Arrived
Operator: Privately registered:
United States
More flights under this callsign
Pilot: Zhuojun Y. (28503)
Aircraft: SOCATA TBM-900
(TBM9)
More flights by this aircraft type
Origin: KSBP San Luis Co Regl
United States
Destination: KBUR Bob Hope-Burbank
United States
More flights between these airports :: More routes between these airports
Route: + RZS V186 FIM FERN7
File this flight plan on PilotEdge
Remarks:
Altitude:
(Current/Filed)
7,000ft
Speed:
(Current/Filed)
220kts
Departed: 18-Apr-20 09:11 PM
Arrived: 18-Apr-20 09:49 PM
Distance/Time
Traveled:
129nm/0:38
Distance/Time
To Go:
Arrived

Flight Plot

Page will automatically refresh every two minutes.

Flight plan parsing failed; only flown route is shown


Map Options




Map Legend


Flown Route
Filed Route
Departure Airport
Arrival Airport
Navaid (VOR, NDB)
Fix

Horizontal Profiles

Position Reports

Time Latitude Longitude Heading Altitude Ground
Speed
18-Apr-20 20:53 35.238091 -120.637520 312 215ft 0kts
18-Apr-20 20:54 35.238091 -120.637520 312 215ft 0kts
18-Apr-20 20:55 35.238091 -120.637520 312 215ft 0kts
18-Apr-20 20:56 35.238091 -120.637520 312 215ft 0kts
18-Apr-20 20:57 35.238091 -120.637520 312 215ft 0kts
18-Apr-20 20:58 35.238091 -120.637520 312 215ft 0kts
18-Apr-20 20:59 35.238091 -120.637520 312 215ft 0kts
18-Apr-20 21:00 35.238091 -120.637520 312 215ft 0kts
18-Apr-20 21:01 35.238091 -120.637520 312 215ft 0kts
18-Apr-20 21:02 35.238091 -120.637520 312 215ft 0kts
18-Apr-20 21:03 35.238280 -120.637004 119 215ft 6kts
18-Apr-20 21:04 35.237856 -120.636920 209 215ft 0kts
18-Apr-20 21:05 35.237856 -120.636920 209 215ft 0kts
18-Apr-20 21:06 35.237806 -120.636963 219 215ft 3kts
18-Apr-20 21:07 35.236053 -120.636837 124 215ft 14kts
18-Apr-20 21:08 35.233852 -120.632997 125 215ft 5kts
18-Apr-20 21:09 35.233224 -120.632321 205 215ft 0kts
18-Apr-20 21:10 35.234502 -120.636000 305 215ft 56kts
18-Apr-20 21:11 35.251999 -120.667442 301 1586ft 139kts
18-Apr-20 21:12 35.274198 -120.713745 301 2926ft 172kts
18-Apr-20 21:13 35.310458 -120.725793 57 4625ft 176kts
18-Apr-20 21:14 35.288677 -120.673748 135 6600ft 177kts
18-Apr-20 21:15 35.249906 -120.627827 137 8074ft 213kts
18-Apr-20 21:16 35.201861 -120.571529 136 8897ft 264kts
18-Apr-20 21:17 35.145658 -120.505776 136 8885ft 283kts
18-Apr-20 21:18 35.087479 -120.437886 136 8876ft 285kts
18-Apr-20 21:19 35.029193 -120.370012 136 8850ft 287kts
18-Apr-20 21:20 34.971633 -120.303122 137 8845ft 285kts
18-Apr-20 21:21 34.913105 -120.235245 137 8845ft 285kts
18-Apr-20 21:22 34.855014 -120.168016 137 8842ft 285kts
18-Apr-20 21:23 34.796299 -120.100204 137 8851ft 285kts
18-Apr-20 21:24 34.737951 -120.032965 137 8853ft 285kts
18-Apr-20 21:25 34.679481 -119.965697 137 8860ft 286kts
18-Apr-20 21:26 34.621212 -119.898808 137 8862ft 282kts
18-Apr-20 21:27 34.563111 -119.832251 137 8833ft 283kts
18-Apr-20 21:28 34.506125 -119.764987 123 8798ft 283kts
18-Apr-20 21:29 34.462276 -119.683838 122 8809ft 283kts
18-Apr-20 21:30 34.418439 -119.603110 122 8809ft 283kts
18-Apr-20 21:31 34.374316 -119.522066 122 8810ft 284kts
18-Apr-20 21:32 34.330172 -119.441168 122 8829ft 283kts
18-Apr-20 21:33 34.321723 -119.350287 80 8830ft 275kts
18-Apr-20 21:34 34.328984 -119.255208 80 8825ft 275kts
18-Apr-20 21:35 34.336093 -119.160720 80 8826ft 277kts
18-Apr-20 21:36 34.343149 -119.066031 80 8826ft 277kts
18-Apr-20 21:37 34.350076 -118.972041 80 8827ft 277kts
18-Apr-20 21:38 34.345182 -118.879113 120 8828ft 286kts
18-Apr-20 21:39 34.280723 -118.820544 141 8185ft 293kts
18-Apr-20 21:40 34.219045 -118.761097 141 6470ft 268kts
18-Apr-20 21:41 34.194930 -118.682230 91 4730ft 250kts
18-Apr-20 21:42 34.193312 -118.606179 68 3793ft 192kts
18-Apr-20 21:43 34.200446 -118.548800 86 3812ft 169kts
18-Apr-20 21:44 34.199659 -118.494212 86 2771ft 148kts
18-Apr-20 21:45 34.198556 -118.450085 90 2042ft 130kts
18-Apr-20 21:46 34.197928 -118.417895 84 1395ft 86kts
18-Apr-20 21:47 34.197905 -118.387851 86 1106ft 88kts
18-Apr-20 21:48 34.197885 -118.363173 89 737ft 28kts
18-Apr-20 21:49 34.197901 -118.360463 53 737ft 12kts
18-Apr-20 21:50 34.198646 -118.360270 359 737ft 0kts
18-Apr-20 21:51 34.199232 -118.360240 1 737ft 5kts
18-Apr-20 21:52 34.199838 -118.360018 1 737ft 0kts
18-Apr-20 21:53 34.199840 -118.360018 1 737ft 0kts
18-Apr-20 21:54 34.199840 -118.360018 1 737ft 0kts
18-Apr-20 21:55 34.199840 -118.360018 1 737ft 0kts
18-Apr-20 21:56 34.199840 -118.360018 1 737ft 0kts

Navigation Log

Ident Type
Flight plan parsing failed, navigation log unavailable